AEJ weather

Central Colorado Regional Airport
Buena Vista, Colorado, United States

Public forecast

Using degrees Fahrenheit for public forecast. Weather courtesy of forecast.io.

Current aviation weather report (METAR) for Central Colorado Regional Airport

Retrieved 2020/02/26 19:35 UTC (11 minutes ago):

KAEJ 261935Z AUTO 00000KT 10SM CLR 01/M20 A3023 RMK AO2 T00121199

Closest aviation forecast (TAF) to Central Colorado Regional Airport

Closest forecast is Gunnison Crested Butte Regional Airport, 41.6 nm (77.1 km) WSW. Retrieved 2020/02/26 18:39 UTC (1 hour ago):

TAF KGUC 261737Z 2618/2718 00000KT P6SM SKC FM262000 26006KT P6SM FEW080 FEW250 FM270100 28005KT P6SM FEW060 SCT150 FM271700 27005KT P6SM FEW060 FEW180